createdAt,value
2022-11-19T00:01:27.364Z,-2.70
2022-11-19T00:03:55.270Z,-2.70
2022-11-19T00:06:28.285Z,-2.70
2022-11-19T00:08:55.697Z,-2.70
2022-11-19T00:11:44.295Z,-2.60
2022-11-19T00:14:13.494Z,-2.70
2022-11-19T00:16:40.879Z,-2.60
2022-11-19T00:19:08.064Z,-2.70
2022-11-19T00:21:34.978Z,-2.70
2022-11-19T00:24:01.993Z,-2.80
2022-11-19T00:26:28.909Z,-2.80
2022-11-19T00:28:55.920Z,-2.90
2022-11-19T00:31:23.414Z,-2.90
2022-11-19T00:33:50.862Z,-3.00
2022-11-19T00:36:18.115Z,-3.00
2022-11-19T00:38:45.048Z,-3.10
2022-11-19T00:41:12.303Z,-3.10
2022-11-19T00:43:48.623Z,-3.20
2022-11-19T00:46:19.836Z,-3.30
2022-11-19T00:48:49.081Z,-3.30
2022-11-19T00:51:17.077Z,-3.40
2022-11-19T00:53:44.486Z,-3.40
2022-11-19T00:56:13.504Z,-3.40
2022-11-19T00:58:41.287Z,-3.40
2022-11-19T01:01:09.781Z,-3.40
2022-11-19T01:03:38.586Z,-3.30
2022-11-19T01:06:06.595Z,-3.30
2022-11-19T01:08:33.593Z,-3.20
2022-11-19T01:11:09.494Z,-3.20
2022-11-19T01:13:36.601Z,-3.10
2022-11-19T01:16:08.368Z,-3.10
2022-11-19T01:18:36.889Z,-3.10
2022-11-19T01:21:05.670Z,-3.10
2022-11-19T01:23:33.466Z,-3.00
2022-11-19T01:26:00.782Z,-3.00
2022-11-19T01:28:27.722Z,-3.00
2022-11-19T01:30:54.630Z,-3.00
2022-11-19T01:33:22.714Z,-3.00
2022-11-19T01:36:00.940Z,-3.00
2022-11-19T01:38:29.380Z,-2.90
2022-11-19T01:40:57.754Z,-2.90
2022-11-19T01:43:44.292Z,-2.90
2022-11-19T01:46:14.611Z,-2.90
2022-11-19T01:48:56.747Z,-2.90
2022-11-19T01:51:31.962Z,-2.90
2022-11-19T01:54:03.562Z,-2.90
2022-11-19T01:56:32.164Z,-2.90
2022-11-19T01:59:05.674Z,-3.00
2022-11-19T02:01:33.080Z,-3.00
2022-11-19T02:04:01.472Z,-3.00
2022-11-19T02:06:30.899Z,-3.00
2022-11-19T02:08:57.871Z,-3.00
2022-11-19T02:11:49.830Z,-3.00
2022-11-19T02:14:24.018Z,-3.00
2022-11-19T02:17:18.156Z,-3.00
2022-11-19T02:20:09.732Z,-3.00
2022-11-19T02:23:01.346Z,-3.00
2022-11-19T02:26:05.620Z,-3.00
2022-11-19T02:28:49.213Z,-3.00
2022-11-19T02:31:37.637Z,-3.00
2022-11-19T02:34:11.283Z,-3.00
2022-11-19T02:36:43.725Z,-3.00
2022-11-19T02:39:17.229Z,-3.00
2022-11-19T02:41:59.820Z,-3.10
2022-11-19T02:45:02.352Z,-3.10
2022-11-19T02:47:42.385Z,-3.00
2022-11-19T02:50:45.347Z,-3.00
2022-11-19T02:53:12.309Z,-3.00
2022-11-19T02:55:40.123Z,-3.10
2022-11-19T02:58:34.589Z,-3.10
2022-11-19T03:01:22.659Z,-3.00
2022-11-19T03:04:09.469Z,-3.10
2022-11-19T03:06:36.566Z,-3.10
2022-11-19T03:09:03.728Z,-3.00
2022-11-19T03:11:32.455Z,-3.10
2022-11-19T03:14:39.502Z,-3.00
2022-11-19T03:17:15.341Z,-3.10
2022-11-19T03:19:54.932Z,-3.10
2022-11-19T03:22:36.308Z,-3.10
2022-11-19T03:25:09.701Z,-3.00
2022-11-19T03:27:43.645Z,-3.00
2022-11-19T03:30:11.947Z,-3.10
2022-11-19T03:33:07.651Z,-3.10
2022-11-19T03:35:43.645Z,-3.00
2022-11-19T03:38:15.746Z,-3.00
2022-11-19T03:40:43.581Z,-3.00
2022-11-19T03:43:13.666Z,-3.00
2022-11-19T03:45:44.311Z,-3.00
2022-11-19T03:48:15.346Z,-3.00
2022-11-19T03:50:49.947Z,-3.00
2022-11-19T03:53:18.069Z,-3.00
2022-11-19T03:55:50.004Z,-3.00
2022-11-19T03:58:17.164Z,-3.00
2022-11-19T04:00:44.060Z,-3.00
2022-11-19T04:03:10.982Z,-3.00
2022-11-19T04:05:37.898Z,-3.00
2022-11-19T04:08:05.058Z,-3.00
2022-11-19T04:10:32.023Z,-2.90
2022-11-19T04:12:58.964Z,-3.00
2022-11-19T04:15:25.926Z,-3.00
2022-11-19T04:17:52.829Z,-2.90
2022-11-19T04:20:19.882Z,-3.00
2022-11-19T04:22:46.980Z,-3.00
2022-11-19T04:25:13.927Z,-3.00
2022-11-19T04:27:40.819Z,-3.00
2022-11-19T04:30:08.555Z,-3.00
2022-11-19T04:32:35.454Z,-3.10
2022-11-19T04:35:02.403Z,-3.10
2022-11-19T04:37:29.302Z,-3.10
2022-11-19T04:39:56.226Z,-3.10
2022-11-19T04:42:23.158Z,-3.10
2022-11-19T04:44:50.071Z,-3.10
2022-11-19T04:47:17.024Z,-3.10
2022-11-19T04:49:44.235Z,-3.10
2022-11-19T04:52:11.148Z,-3.10
2022-11-19T04:54:38.049Z,-3.20
2022-11-19T04:57:04.989Z,-3.20
2022-11-19T04:59:31.872Z,-3.10
2022-11-19T05:01:59.059Z,-3.20
2022-11-19T05:04:25.978Z,-3.20
2022-11-19T05:06:52.884Z,-3.20
2022-11-19T05:09:19.929Z,-3.20
2022-11-19T05:11:47.038Z,-3.20
2022-11-19T05:14:13.925Z,-3.20
2022-11-19T05:16:40.878Z,-3.20
2022-11-19T05:19:08.103Z,-3.20
2022-11-19T05:21:35.098Z,-3.20
2022-11-19T05:24:02.022Z,-3.30
2022-11-19T05:26:28.939Z,-3.20
2022-11-19T05:28:55.815Z,-3.30
2022-11-19T05:31:22.739Z,-3.30
2022-11-19T05:33:49.707Z,-3.40
2022-11-19T05:36:16.695Z,-3.40
2022-11-19T05:38:43.627Z,-3.40
2022-11-19T05:41:10.573Z,-3.40
2022-11-19T05:43:37.515Z,-3.40
2022-11-19T05:46:04.543Z,-3.40
2022-11-19T05:48:31.503Z,-3.50
2022-11-19T05:50:58.473Z,-3.50
2022-11-19T05:53:25.460Z,-3.50
2022-11-19T05:55:52.366Z,-3.50
2022-11-19T05:58:19.289Z,-3.50
2022-11-19T06:00:46.205Z,-3.60
2022-11-19T06:03:13.229Z,-3.60
2022-11-19T06:05:40.835Z,-3.60
2022-11-19T06:08:07.887Z,-3.60
2022-11-19T06:10:35.010Z,-3.60
2022-11-19T06:13:01.915Z,-3.60
2022-11-19T06:15:28.806Z,-3.60
2022-11-19T06:17:57.146Z,-3.60
2022-11-19T06:20:24.186Z,-3.60
2022-11-19T06:22:52.044Z,-3.60
2022-11-19T06:25:19.509Z,-3.60
2022-11-19T06:27:46.440Z,-3.50
2022-11-19T06:30:14.259Z,-3.50
2022-11-19T06:32:41.179Z,-3.50
2022-11-19T06:35:08.540Z,-3.50
2022-11-19T06:37:36.042Z,-3.50
2022-11-19T06:40:03.754Z,-3.50
2022-11-19T06:42:36.797Z,-3.50
2022-11-19T06:45:13.033Z,-3.50
2022-11-19T06:47:41.507Z,-3.50
2022-11-19T06:50:10.128Z,-3.50
2022-11-19T06:52:37.548Z,-3.50
2022-11-19T06:55:04.897Z,-3.50
2022-11-19T06:57:31.942Z,-3.50
2022-11-19T06:59:58.835Z,-3.50
2022-11-19T07:02:25.883Z,-3.40
2022-11-19T07:04:52.790Z,-3.40
2022-11-19T07:07:19.801Z,-3.40
2022-11-19T07:09:46.726Z,-3.40
2022-11-19T07:12:13.782Z,-3.40
2022-11-19T07:14:40.683Z,-3.30
2022-11-19T07:17:07.647Z,-3.30
2022-11-19T07:19:35.648Z,-3.30
2022-11-19T07:22:03.768Z,-3.30
2022-11-19T07:24:30.878Z,-3.20
2022-11-19T07:26:57.819Z,-3.10
2022-11-19T07:29:24.750Z,-3.20
2022-11-19T07:31:53.374Z,-3.20
2022-11-19T07:34:21.169Z,-3.10
2022-11-19T07:36:49.479Z,-3.00
2022-11-19T07:39:20.562Z,-3.00
2022-11-19T07:42:06.295Z,-3.00
2022-11-19T07:44:33.558Z,-2.90
2022-11-19T07:47:00.600Z,-2.90
2022-11-19T07:49:27.602Z,-2.90
2022-11-19T07:51:54.669Z,-2.90
2022-11-19T07:54:21.731Z,-2.80
2022-11-19T07:56:48.651Z,-2.80
2022-11-19T07:59:15.709Z,-2.80
2022-11-19T08:01:43.353Z,-2.80
2022-11-19T08:04:10.326Z,-2.70
2022-11-19T08:06:37.547Z,-2.70
2022-11-19T08:09:05.691Z,-2.60
2022-11-19T08:11:32.611Z,-2.60
2022-11-19T08:14:03.182Z,-2.50
2022-11-19T08:16:51.242Z,-2.40
2022-11-19T08:19:18.863Z,-2.40
2022-11-19T08:21:47.131Z,-2.50
2022-11-19T08:24:15.692Z,-2.50
2022-11-19T08:26:43.583Z,-2.50
2022-11-19T08:29:16.249Z,-2.50
2022-11-19T08:31:45.352Z,-2.60
2022-11-19T08:34:12.401Z,-2.50
2022-11-19T08:36:39.755Z,-2.60
2022-11-19T08:39:06.886Z,-2.60
2022-11-19T08:41:52.757Z,-2.60
2022-11-19T08:44:20.583Z,-2.60
2022-11-19T08:46:47.827Z,-2.60
2022-11-19T08:49:14.859Z,-2.60
2022-11-19T08:51:41.923Z,-2.50
2022-11-19T08:54:09.058Z,-2.50
2022-11-19T08:56:36.039Z,-2.40
2022-11-19T08:59:03.476Z,-2.30
2022-11-19T09:01:31.172Z,-2.30
2022-11-19T09:03:58.304Z,-2.20
2022-11-19T09:06:25.298Z,-2.30
2022-11-19T09:08:52.319Z,-2.20
2022-11-19T09:11:21.275Z,-2.20
2022-11-19T09:13:48.312Z,-2.10
2022-11-19T09:16:15.308Z,-2.00
2022-11-19T09:18:42.475Z,-2.00
2022-11-19T09:21:11.004Z,-2.00
2022-11-19T09:23:38.943Z,-2.00
2022-11-19T09:26:12.147Z,-2.00
2022-11-19T09:28:39.308Z,-2.10
2022-11-19T09:31:07.874Z,-2.10
2022-11-19T09:33:37.231Z,-2.10
2022-11-19T09:36:04.824Z,-2.10
2022-11-19T09:38:32.089Z,-2.20
2022-11-19T09:41:11.423Z,-2.20
2022-11-19T09:43:50.025Z,-2.20
2022-11-19T09:46:31.749Z,-2.20
2022-11-19T09:49:08.166Z,-2.10
2022-11-19T09:51:37.347Z,-2.10
2022-11-19T09:54:08.023Z,-2.10
2022-11-19T09:56:36.919Z,-2.10
2022-11-19T09:59:13.645Z,-2.20
2022-11-19T10:01:41.033Z,-2.30
2022-11-19T10:04:10.559Z,-2.40
2022-11-19T10:07:00.116Z,-2.40
2022-11-19T10:09:32.208Z,-2.30
2022-11-19T10:12:37.658Z,-2.20
2022-11-19T10:15:24.272Z,-2.10
2022-11-19T10:18:05.978Z,-2.00
2022-11-19T10:20:44.784Z,-2.00
2022-11-19T10:23:16.987Z,-2.10
2022-11-19T10:25:50.070Z,-2.10
2022-11-19T10:28:25.573Z,-2.10
2022-11-19T10:30:58.416Z,-2.20
2022-11-19T10:33:33.845Z,-2.20
2022-11-19T10:36:05.331Z,-2.10
2022-11-19T10:38:37.736Z,-2.10
2022-11-19T10:41:12.866Z,-2.10
2022-11-19T10:43:48.837Z,-2.10
2022-11-19T10:46:19.834Z,-2.10
2022-11-19T10:48:57.610Z,-2.10
2022-11-19T10:51:29.777Z,-2.10
2022-11-19T10:53:57.518Z,-2.10
2022-11-19T10:56:52.419Z,-2.10
2022-11-19T10:59:22.736Z,-2.20
2022-11-19T11:01:54.052Z,-2.20
2022-11-19T11:04:23.365Z,-2.30
2022-11-19T11:06:54.578Z,-2.30
2022-11-19T11:09:37.828Z,-2.20
2022-11-19T11:12:36.326Z,-2.20
2022-11-19T11:15:17.314Z,-2.20
2022-11-19T11:17:47.072Z,-2.20
2022-11-19T11:20:20.253Z,-2.20
2022-11-19T11:22:49.688Z,-2.30
2022-11-19T11:25:26.323Z,-2.30
2022-11-19T11:28:16.611Z,-2.30
2022-11-19T11:30:57.027Z,-2.30
2022-11-19T11:33:53.936Z,-2.30
2022-11-19T11:36:27.731Z,-2.30
2022-11-19T11:38:57.849Z,-2.30
2022-11-19T11:44:33.399Z,-2.40
2022-11-19T11:47:12.907Z,-2.30
2022-11-19T11:49:45.819Z,-2.40
2022-11-19T11:52:15.515Z,-2.40
2022-11-19T11:55:06.969Z,-2.50
2022-11-19T11:57:50.755Z,-2.50
2022-11-19T12:00:38.578Z,-2.50
2022-11-19T12:03:18.922Z,-2.50
2022-11-19T12:06:03.954Z,-2.50
2022-11-19T12:08:49.514Z,-2.50
2022-11-19T12:11:58.016Z,-2.40
2022-11-19T12:14:35.224Z,-2.40
2022-11-19T12:17:22.392Z,-2.40
2022-11-19T12:20:07.041Z,-2.40
2022-11-19T12:23:21.307Z,-2.30
2022-11-19T12:26:15.211Z,-2.30
2022-11-19T12:29:12.367Z,-2.30
2022-11-19T12:31:57.752Z,-2.40
2022-11-19T12:34:56.742Z,-2.40
2022-11-19T12:37:23.579Z,-2.40
2022-11-19T12:40:14.184Z,-2.40
2022-11-19T12:43:09.800Z,-2.40
2022-11-19T12:45:48.451Z,-2.40
2022-11-19T12:48:37.792Z,-2.50
2022-11-19T12:51:32.392Z,-2.50
2022-11-19T12:54:27.904Z,-2.50
2022-11-19T12:57:20.518Z,-2.50
2022-11-19T13:00:14.248Z,-2.50
2022-11-19T13:02:58.984Z,-2.50
2022-11-19T13:06:02.414Z,-2.50
2022-11-19T13:09:01.503Z,-2.50
2022-11-19T13:11:44.190Z,-2.60
2022-11-19T13:14:41.142Z,-2.60
2022-11-19T13:17:30.649Z,-2.60
2022-11-19T13:20:04.830Z,-2.60
2022-11-19T13:22:39.125Z,-2.60
2022-11-19T13:25:24.999Z,-2.60
2022-11-19T13:27:54.739Z,-2.60
2022-11-19T13:30:26.805Z,-2.60
2022-11-19T13:33:15.425Z,-2.60
2022-11-19T13:35:45.291Z,-2.60
2022-11-19T13:38:25.472Z,-2.60
2022-11-19T13:40:55.465Z,-2.60
2022-11-19T13:43:41.516Z,-2.60
2022-11-19T13:46:11.136Z,-2.60
2022-11-19T13:48:43.232Z,-2.60
2022-11-19T13:51:31.661Z,-2.70
2022-11-19T13:54:03.388Z,-2.70
2022-11-19T13:56:46.435Z,-2.80
2022-11-19T13:59:33.732Z,-2.80
2022-11-19T14:02:24.917Z,-2.90
2022-11-19T14:04:51.793Z,-3.00
2022-11-19T14:07:31.031Z,-3.10
2022-11-19T14:10:12.730Z,-3.10
2022-11-19T14:12:58.865Z,-3.20
2022-11-19T14:16:10.498Z,-3.30
2022-11-19T14:19:02.084Z,-3.30
2022-11-19T14:21:47.543Z,-3.40
2022-11-19T14:24:44.771Z,-3.40
2022-11-19T14:27:27.662Z,-3.50
2022-11-19T14:29:57.600Z,-3.50
2022-11-19T14:32:30.277Z,-3.60
2022-11-19T14:35:03.784Z,-3.60
2022-11-19T14:37:51.998Z,-3.70
2022-11-19T14:40:21.280Z,-3.70
2022-11-19T14:43:24.960Z,-3.70
2022-11-19T14:46:04.700Z,-3.80
2022-11-19T14:48:40.791Z,-3.80
2022-11-19T14:51:10.849Z,-3.80
2022-11-19T14:53:49.581Z,-3.80
2022-11-19T14:56:20.069Z,-3.80
2022-11-19T14:59:15.640Z,-3.80
2022-11-19T15:01:51.820Z,-3.80
2022-11-19T15:04:22.556Z,-3.80
2022-11-19T15:06:50.345Z,-3.80
2022-11-19T15:09:55.640Z,-3.80
2022-11-19T15:12:33.451Z,-3.80
2022-11-19T15:15:20.319Z,-3.70
2022-11-19T15:18:35.734Z,-3.70
2022-11-19T15:21:17.620Z,-3.70
2022-11-19T15:23:56.334Z,-3.70
2022-11-19T15:26:34.921Z,-3.70
2022-11-19T15:29:38.488Z,-3.70
2022-11-19T15:32:25.786Z,-3.70
2022-11-19T15:35:10.913Z,-3.70
2022-11-19T15:37:49.588Z,-3.60
2022-11-19T15:40:24.247Z,-3.60
2022-11-19T15:43:36.024Z,-3.60
2022-11-19T15:46:51.120Z,-3.50
2022-11-19T15:49:28.276Z,-3.50
2022-11-19T15:52:18.338Z,-3.50
2022-11-19T15:54:45.467Z,-3.50
2022-11-19T15:57:27.071Z,-3.50
2022-11-19T16:00:00.989Z,-3.40
2022-11-19T16:02:36.570Z,-3.40
2022-11-19T16:05:04.627Z,-3.40
2022-11-19T16:07:32.195Z,-3.40
2022-11-19T16:10:00.328Z,-3.40
2022-11-19T16:12:47.127Z,-3.40
2022-11-19T16:15:42.936Z,-3.50
2022-11-19T16:18:18.002Z,-3.50
2022-11-19T16:20:48.024Z,-3.50
2022-11-19T16:23:21.073Z,-3.50
2022-11-19T16:25:49.260Z,-3.50
2022-11-19T16:28:24.587Z,-3.50
2022-11-19T16:31:02.774Z,-3.50
2022-11-19T16:33:32.177Z,-3.40
2022-11-19T16:36:19.512Z,-3.40
2022-11-19T16:38:51.593Z,-3.50
2022-11-19T16:41:39.602Z,-3.40
2022-11-19T16:44:13.910Z,-3.40
2022-11-19T16:46:41.188Z,-3.40
2022-11-19T16:49:56.523Z,-3.40
2022-11-19T16:52:55.702Z,-3.40
2022-11-19T16:55:25.351Z,-3.40
2022-11-19T16:58:19.406Z,-3.40
2022-11-19T17:00:50.199Z,-3.40
2022-11-19T17:03:27.785Z,-3.40
2022-11-19T17:05:58.177Z,-3.40
2022-11-19T17:08:39.257Z,-3.40
2022-11-19T17:11:38.519Z,-3.50
2022-11-19T17:14:22.861Z,-3.50
2022-11-19T17:16:52.935Z,-3.40
2022-11-19T17:19:27.966Z,-3.40
2022-11-19T17:22:19.691Z,-3.40
2022-11-19T17:24:47.718Z,-3.40
2022-11-19T17:27:29.677Z,-3.40
2022-11-19T17:30:17.862Z,-3.40
2022-11-19T17:33:03.886Z,-3.40
2022-11-19T17:35:39.459Z,-3.40
2022-11-19T17:38:21.271Z,-3.40
2022-11-19T17:40:59.718Z,-3.50
2022-11-19T17:44:15.658Z,-3.50
2022-11-19T17:46:42.586Z,-3.50
2022-11-19T17:49:15.182Z,-3.50
2022-11-19T17:51:42.112Z,-3.50
2022-11-19T17:54:13.698Z,-3.50
2022-11-19T17:56:40.631Z,-3.50
2022-11-19T17:59:07.561Z,-3.50
2022-11-19T18:01:34.553Z,-3.60
2022-11-19T18:04:01.664Z,-3.50
2022-11-19T18:06:49.579Z,-3.50
2022-11-19T18:09:16.488Z,-3.40
2022-11-19T18:11:43.482Z,-3.50
2022-11-19T18:14:10.416Z,-3.50
2022-11-19T18:16:40.008Z,-3.50
2022-11-19T18:19:14.352Z,-3.40
2022-11-19T18:21:51.550Z,-3.40
2022-11-19T18:24:19.015Z,-3.40
2022-11-19T18:26:46.189Z,-3.50
2022-11-19T18:29:13.205Z,-3.50
2022-11-19T18:31:48.980Z,-3.40
2022-11-19T18:34:21.326Z,-3.40
2022-11-19T18:36:48.761Z,-3.50
2022-11-19T18:39:16.184Z,-3.50
2022-11-19T18:41:43.469Z,-3.50
2022-11-19T18:44:34.270Z,-3.50
2022-11-19T18:47:08.573Z,-3.50
2022-11-19T18:49:35.792Z,-3.50
2022-11-19T18:52:04.385Z,-3.60
2022-11-19T18:54:31.656Z,-3.60
2022-11-19T18:57:00.590Z,-3.60
2022-11-19T18:59:27.640Z,-3.60
2022-11-19T19:01:55.918Z,-3.60
2022-11-19T19:04:24.151Z,-3.60
2022-11-19T19:06:51.263Z,-3.50
2022-11-19T19:09:21.668Z,-3.50
2022-11-19T19:12:13.566Z,-3.50
2022-11-19T19:14:42.293Z,-3.60
2022-11-19T19:17:10.039Z,-3.50
2022-11-19T19:19:37.114Z,-3.50
2022-11-19T19:22:04.789Z,-3.40
2022-11-19T19:24:32.632Z,-3.40
2022-11-19T19:27:00.972Z,-3.50
2022-11-19T19:29:28.561Z,-3.50
2022-11-19T19:31:55.478Z,-3.50
2022-11-19T19:34:22.349Z,-3.50
2022-11-19T19:36:53.763Z,-3.50
2022-11-19T19:39:21.502Z,-3.50
2022-11-19T19:41:49.478Z,-3.50
2022-11-19T19:44:16.687Z,-3.50
2022-11-19T19:46:43.846Z,-3.50
2022-11-19T19:49:10.850Z,-3.50
2022-11-19T19:51:37.820Z,-3.50
2022-11-19T19:54:04.819Z,-3.40
2022-11-19T19:56:33.338Z,-3.40
2022-11-19T19:59:01.576Z,-3.40
2022-11-19T20:01:37.656Z,-3.40
2022-11-19T20:04:09.447Z,-3.50
2022-11-19T20:06:38.937Z,-3.50
2022-11-19T20:09:08.908Z,-3.50
2022-11-19T20:11:37.139Z,-3.40
2022-11-19T20:14:04.866Z,-3.40
2022-11-19T20:16:32.826Z,-3.40
2022-11-19T20:19:00.940Z,-3.40
2022-11-19T20:21:31.840Z,-3.40
2022-11-19T20:23:58.884Z,-3.40
2022-11-19T20:26:28.253Z,-3.40
2022-11-19T20:29:00.615Z,-3.40
2022-11-19T20:31:28.955Z,-3.30
2022-11-19T20:33:58.553Z,-3.40
2022-11-19T20:36:28.670Z,-3.30
2022-11-19T20:38:57.560Z,-3.30
2022-11-19T20:41:43.626Z,-3.40
2022-11-19T20:44:21.822Z,-3.40
2022-11-19T20:46:54.769Z,-3.50
2022-11-19T20:49:28.217Z,-3.50
2022-11-19T20:51:55.913Z,-3.50
2022-11-19T20:54:24.095Z,-3.60
2022-11-19T20:56:52.392Z,-3.50
2022-11-19T20:59:20.144Z,-3.50
2022-11-19T21:01:49.575Z,-3.50
2022-11-19T21:04:16.627Z,-3.50
2022-11-19T21:06:43.528Z,-3.50
2022-11-19T21:09:10.514Z,-3.50
2022-11-19T21:11:37.830Z,-3.50
2022-11-19T21:14:05.314Z,-3.50
2022-11-19T21:16:33.008Z,-3.50
2022-11-19T21:18:59.950Z,-3.50
2022-11-19T21:21:27.722Z,-3.50
2022-11-19T21:23:54.978Z,-3.50
2022-11-19T21:26:24.383Z,-3.50
2022-11-19T21:28:53.678Z,-3.50
2022-11-19T21:31:38.145Z,-3.50
2022-11-19T21:34:10.789Z,-3.50
2022-11-19T21:36:38.495Z,-3.50
2022-11-19T21:39:06.572Z,-3.50
2022-11-19T21:41:34.330Z,-3.50
2022-11-19T21:44:02.489Z,-3.50
2022-11-19T21:46:29.596Z,-3.50
2022-11-19T21:48:56.572Z,-3.50
2022-11-19T21:51:25.096Z,-3.60
2022-11-19T21:53:56.702Z,-3.60
2022-11-19T21:56:24.552Z,-3.60
2022-11-19T21:58:51.610Z,-3.60
2022-11-19T22:01:18.892Z,-3.60
2022-11-19T22:03:46.138Z,-3.70
2022-11-19T22:06:13.135Z,-3.70
2022-11-19T22:08:42.022Z,-3.60
2022-11-19T22:11:28.917Z,-3.60
2022-11-19T22:13:57.883Z,-3.60
2022-11-19T22:16:24.891Z,-3.60
2022-11-19T22:18:51.853Z,-3.60
2022-11-19T22:21:18.872Z,-3.60
2022-11-19T22:23:46.498Z,-3.60
2022-11-19T22:26:13.529Z,-3.50
2022-11-19T22:28:40.565Z,-3.50
2022-11-19T22:31:07.674Z,-3.50
2022-11-19T22:33:36.931Z,-3.50
2022-11-19T22:36:09.853Z,-3.50
2022-11-19T22:38:39.012Z,-3.50
2022-11-19T22:41:09.072Z,-3.40
2022-11-19T22:43:37.214Z,-3.40
2022-11-19T22:46:05.030Z,-3.40
2022-11-19T22:48:33.402Z,-3.40
2022-11-19T22:51:04.765Z,-3.50
2022-11-19T22:53:31.709Z,-3.50
2022-11-19T22:56:02.934Z,-3.50
2022-11-19T22:58:29.928Z,-3.40
2022-11-19T23:00:57.225Z,-3.40
2022-11-19T23:03:24.328Z,-3.40
2022-11-19T23:05:55.223Z,-3.40
2022-11-19T23:08:22.958Z,-3.40
2022-11-19T23:11:00.440Z,-3.40
2022-11-19T23:13:35.649Z,-3.40
2022-11-19T23:16:06.643Z,-3.40
2022-11-19T23:18:39.426Z,-3.40
2022-11-19T23:21:08.344Z,-3.40
2022-11-19T23:23:35.708Z,-3.50
2022-11-19T23:26:03.933Z,-3.50
2022-11-19T23:28:33.497Z,-3.40
2022-11-19T23:31:14.343Z,-3.50
2022-11-19T23:33:41.587Z,-3.50
2022-11-19T23:36:12.124Z,-3.50
2022-11-19T23:38:39.987Z,-3.50
2022-11-19T23:41:09.250Z,-3.50
2022-11-19T23:43:36.872Z,-3.40
2022-11-19T23:46:21.377Z,-3.40
2022-11-19T23:48:49.650Z,-3.40
2022-11-19T23:51:26.977Z,-3.50
2022-11-19T23:53:54.024Z,-3.50
2022-11-19T23:56:22.579Z,-3.50
2022-11-19T23:58:50.058Z,-3.50
